Time;durP1;ratioP1;P1;durP2;ratioP2;P2;SDS_P1;SDS_P2;PMS_P1;PMS_P2;Temp;Humidity;BMP_temperature;BMP_pressure;BME280_temperature;BME280_humidity;BME280_pressure;Samples;Min_cycle;Max_cycle;Signal;HPM_P1;HPM_P2
2021/12/11 00:01:00;;;;;;;27.77;14.90;;;;;;;;;;5094652;28;20020;-70
2021/12/11 00:03:27;;;;;;;56.05;26.48;;;;;;;;;;5094158;28;20050;-71
2021/12/11 00:05:56;;;;;;;36.10;21.45;;;;;;;;;;5094541;28;20016;-71
2021/12/11 00:08:26;;;;;;;46.75;25.20;;;;;;;;;;5094700;28;20035;-71
2021/12/11 00:10:55;;;;;;;53.50;29.58;;;;;;;;;;5094612;28;20023;-71
2021/12/11 00:13:24;;;;;;;47.45;25.63;;;;;;;;;;5094435;28;20376;-70
2021/12/11 00:15:51;;;;;;;26.70;14.25;;;;;;;;;;5094788;28;20085;-70
2021/12/11 00:18:22;;;;;;;20.38;11.15;;;;;;;;;;5094269;28;20086;-71
2021/12/11 00:20:51;;;;;;;25.17;14.68;;;;;;;;;;5094155;28;20043;-71
2021/12/11 00:23:28;;;;;;;27.00;14.98;;;;;;;;;;5094476;28;20473;-70
2021/12/11 00:25:54;;;;;;;31.08;16.98;;;;;;;;;;5094351;28;20028;-70
2021/12/11 00:28:21;;;;;;;42.65;21.75;;;;;;;;;;5094589;28;20020;-70
2021/12/11 00:30:47;;;;;;;54.17;32.45;;;;;;;;;;5094398;28;20099;-71
2021/12/11 00:33:16;;;;;;;38.83;22.00;;;;;;;;;;5093746;28;20026;-71
2021/12/11 00:35:43;;;;;;;32.00;18.02;;;;;;;;;;5094190;28;20024;-71
2021/12/11 00:38:11;;;;;;;35.38;18.80;;;;;;;;;;5094374;28;20475;-72
2021/12/11 00:40:38;;;;;;;23.27;12.98;;;;;;;;;;5093609;28;20460;-70
2021/12/11 00:43:05;;;;;;;18.70;10.20;;;;;;;;;;5093948;28;20077;-70
2021/12/11 00:45:38;;;;;;;21.73;10.98;;;;;;;;;;5093962;28;20027;-71
2021/12/11 00:48:04;;;;;;;;;;;;;;;;;;5092720;28;20054;-71
2021/12/11 00:50:39;;;;;;;20.63;10.13;;;;;;;;;;5093897;28;19911;-71
2021/12/11 00:53:11;;;;;;;21.60;10.18;;;;;;;;;;5094072;28;20480;-71
2021/12/11 00:55:44;;;;;;;31.65;15.88;;;;;;;;;;5093422;28;20055;-71
2021/12/11 00:58:12;;;;;;;30.13;14.95;;;;;;;;;;5093880;28;20024;-71
2021/12/11 01:00:42;;;;;;;18.40;11.05;;;;;;;;;;5093702;28;20026;-71
2021/12/11 01:03:09;;;;;;;30.27;15.13;;;;;;;;;;5093323;28;20028;-71
2021/12/11 01:05:38;;;;;;;36.97;20.30;;;;;;;;;;5093739;28;20024;-71
2021/12/11 01:08:25;;;;;;;41.50;25.20;;;;;;;;;;5093696;28;20099;-71
2021/12/11 01:10:59;;;;;;;30.85;16.65;;;;;;;;;;5093650;28;20393;-71
2021/12/11 01:13:26;;;;;;;;;;;;;;;;;;5093948;28;20069;-71
2021/12/11 01:15:58;;;;;;;44.47;20.75;;;;;;;;;;5093074;28;19908;-71
2021/12/11 01:18:34;;;;;;;32.47;15.25;;;;;;;;;;5093231;28;20052;-71
2021/12/11 01:21:44;;;;;;;40.38;22.50;;;;;;;;;;5094078;28;20027;-71
2021/12/11 01:24:14;;;;;;;19.55;11.57;;;;;;;;;;5092959;28;20078;-71
2021/12/11 01:26:51;;;;;;;17.70;9.05;;;;;;;;;;5093867;28;20016;-71
2021/12/11 01:29:19;;;;;;;16.52;7.22;;;;;;;;;;5093088;28;20023;-71
2021/12/11 01:31:46;;;;;;;11.50;5.38;;;;;;;;;;5093491;28;20024;-71
2021/12/11 01:34:12;;;;;;;9.98;4.38;;;;;;;;;;5093554;28;20048;-71
2021/12/11 01:36:39;;;;;;;8.43;3.97;;;;;;;;;;5093240;28;20472;-71
2021/12/11 01:39:08;;;;;;;7.15;4.13;;;;;;;;;;5093585;28;20104;-71
2021/12/11 01:41:34;;;;;;;11.38;4.93;;;;;;;;;;5093598;28;20419;-71
2021/12/11 01:44:03;;;;;;;19.35;8.60;;;;;;;;;;5092955;28;20020;-71
2021/12/11 01:46:30;;;;;;;12.95;4.72;;;;;;;;;;5093424;28;20024;-71
2021/12/11 01:49:00;;;;;;;12.50;6.22;;;;;;;;;;5093280;28;20074;-71
2021/12/11 01:51:30;;;;;;;12.45;6.13;;;;;;;;;;5092901;28;20399;-71
2021/12/11 01:53:59;;;;;;;23.65;10.75;;;;;;;;;;5093636;28;20422;-71
2021/12/11 01:56:27;;;;;;;20.98;10.88;;;;;;;;;;5093242;28;20059;-71
2021/12/11 01:58:59;;;;;;;13.45;5.70;;;;;;;;;;5092686;28;20036;-71
2021/12/11 02:01:46;;;;;;;10.20;4.25;;;;;;;;;;5093283;28;20559;-71
2021/12/11 02:04:13;;;;;;;10.38;3.80;;;;;;;;;;5093043;28;20046;-71
2021/12/11 02:06:41;;;;;;;9.30;3.22;;;;;;;;;;5092702;28;20020;-71
2021/12/11 02:09:12;;;;;;;5.30;3.00;;;;;;;;;;5093427;28;20055;-71
2021/12/11 02:11:39;;;;;;;4.97;2.65;;;;;;;;;;5092956;28;20103;-71
2021/12/11 02:14:06;;;;;;;5.78;3.15;;;;;;;;;;5093054;28;20087;-71
2021/12/11 02:16:38;;;;;;;7.30;3.33;;;;;;;;;;5093026;28;20028;-71
2021/12/11 02:19:09;;;;;;;7.15;2.90;;;;;;;;;;5092439;28;20040;-71
2021/12/11 02:21:37;;;;;;;7.97;3.75;;;;;;;;;;5093185;28;20421;-71
2021/12/11 02:24:06;;;;;;;5.90;2.92;;;;;;;;;;5093788;28;20487;-71
2021/12/11 02:26:33;;;;;;;5.60;3.05;;;;;;;;;;5095384;28;20048;-71
2021/12/11 02:29:06;;;;;;;7.57;3.60;;;;;;;;;;5096650;28;20024;-71
2021/12/11 02:31:44;;;;;;;7.65;3.60;;;;;;;;;;5095290;28;20097;-71
2021/12/11 02:34:19;;;;;;;9.43;4.40;;;;;;;;;;5096377;28;20028;-71
2021/12/11 02:36:48;;;;;;;8.60;4.22;;;;;;;;;;5096610;28;20388;-71
2021/12/11 02:39:24;;;;;;;7.57;3.58;;;;;;;;;;5095035;28;20500;-71
2021/12/11 02:41:57;;;;;;;6.20;3.17;;;;;;;;;;5096045;28;20362;-71
2021/12/11 02:44:28;;;;;;;6.22;2.60;;;;;;;;;;5095148;28;20472;-71
2021/12/11 02:46:57;;;;;;;8.45;4.13;;;;;;;;;;5095872;28;20467;-71
2021/12/11 02:49:28;;;;;;;10.05;3.67;;;;;;;;;;5096157;28;20020;-71
2021/12/11 02:51:58;;;;;;;7.15;3.17;;;;;;;;;;5096142;28;20034;-71
2021/12/11 02:54:31;;;;;;;6.20;3.38;;;;;;;;;;5095708;28;20047;-71
2021/12/11 02:57:01;;;;;;;6.13;2.95;;;;;;;;;;5096476;28;20027;-71
2021/12/11 02:59:29;;;;;;;6.15;2.80;;;;;;;;;;5096215;28;20043;-71
2021/12/11 03:02:05;;;;;;;5.03;2.85;;;;;;;;;;5095624;28;20020;-71
2021/12/11 03:04:38;;;;;;;5.60;2.60;;;;;;;;;;5096008;28;20046;-71
2021/12/11 03:07:07;;;;;;;5.78;2.60;;;;;;;;;;5096122;28;20066;-71
2021/12/11 03:09:34;;;;;;;7.05;2.83;;;;;;;;;;5094095;28;20449;-71
2021/12/11 03:12:02;;;;;;;4.03;2.50;;;;;;;;;;5095806;28;20027;-71
2021/12/11 03:14:29;;;;;;;5.03;2.25;;;;;;;;;;5096057;28;20047;-71
2021/12/11 03:16:55;;;;;;;4.47;2.45;;;;;;;;;;5095098;28;20031;-71
2021/12/11 03:19:23;;;;;;;4.72;2.20;;;;;;;;;;5095745;28;20116;-71
2021/12/11 03:21:50;;;;;;;5.40;2.17;;;;;;;;;;5095603;28;20020;-71
2021/12/11 03:24:16;;;;;;;6.93;2.83;;;;;;;;;;5095585;28;20118;-71
2021/12/11 03:26:44;;;;;;;6.68;2.58;;;;;;;;;;5095519;28;20028;-71
2021/12/11 03:29:10;;;;;;;6.60;2.72;;;;;;;;;;5095106;28;20028;-71
2021/12/11 03:31:38;;;;;;;7.55;2.75;;;;;;;;;;5095438;28;20081;-71
2021/12/11 03:34:06;;;;;;;5.97;2.80;;;;;;;;;;5095652;28;20020;-71
2021/12/11 03:36:33;;;;;;;5.85;2.60;;;;;;;;;;5094918;28;20373;-71
2021/12/11 03:39:06;;;;;;;5.72;2.65;;;;;;;;;;5095511;28;20032;-71
2021/12/11 03:41:32;;;;;;;4.60;2.42;;;;;;;;;;5095293;28;20028;-71
2021/12/11 03:43:59;;;;;;;7.47;2.97;;;;;;;;;;5094903;28;20032;-71
2021/12/11 03:46:25;;;;;;;4.72;2.25;;;;;;;;;;5095325;28;20016;-71
2021/12/11 03:48:56;;;;;;;5.15;2.42;;;;;;;;;;5095299;28;20020;-70
2021/12/11 03:51:24;;;;;;;5.90;2.63;;;;;;;;;;5094707;28;20024;-71
2021/12/11 03:53:51;;;;;;;4.95;2.38;;;;;;;;;;5095346;28;20095;-71
2021/12/11 03:56:18;;;;;;;5.97;2.80;;;;;;;;;;5093739;28;20103;-71
2021/12/11 03:58:49;;;;;;;5.97;3.05;;;;;;;;;;5094433;28;20365;-71
2021/12/11 04:01:24;;;;;;;5.72;2.97;;;;;;;;;;5094940;28;20058;-71
2021/12/11 04:03:51;;;;;;;6.45;3.25;;;;;;;;;;5094782;28;20020;-71
2021/12/11 04:06:18;;;;;;;6.70;2.95;;;;;;;;;;5094624;28;20536;-71
2021/12/11 04:08:45;;;;;;;7.68;2.97;;;;;;;;;;5094723;28;20035;-71
2021/12/11 04:11:16;;;;;;;7.47;3.22;;;;;;;;;;5094260;28;20476;-71
2021/12/11 04:13:43;;;;;;;9.25;4.10;;;;;;;;;;5094535;28;20032;-71
2021/12/11 04:16:10;;;;;;;9.90;4.65;;;;;;;;;;5094721;28;20069;-71
2021/12/11 04:18:36;;;;;;;9.45;4.07;;;;;;;;;;5094029;28;20043;-71
2021/12/11 04:21:04;;;;;;;9.65;4.55;;;;;;;;;;5094438;28;20403;-71
2021/12/11 04:23:30;;;;;;;8.27;3.92;;;;;;;;;;5094448;28;20034;-71
2021/12/11 04:25:57;;;;;;;10.82;5.05;;;;;;;;;;5092687;28;20020;-71
2021/12/11 04:28:24;;;;;;;16.75;7.03;;;;;;;;;;5094487;28;20016;-71
2021/12/11 04:30:52;;;;;;;13.15;5.03;;;;;;;;;;5094320;28;20095;-71
2021/12/11 04:33:18;;;;;;;22.73;9.38;;;;;;;;;;5093795;28;20036;-71
2021/12/11 04:35:45;;;;;;;17.90;9.13;;;;;;;;;;5094201;28;20024;-71
2021/12/11 04:38:12;;;;;;;10.32;5.28;;;;;;;;;;5094155;28;20020;-71
2021/12/11 04:40:40;;;;;;;12.00;7.65;;;;;;;;;;5093729;28;20107;-71
2021/12/11 04:43:12;;;;;;;8.80;5.03;;;;;;;;;;5094087;28;20074;-71
2021/12/11 04:45:51;;;;;;;5.57;2.97;;;;;;;;;;5094122;28;20020;-71
2021/12/11 04:48:22;;;;;;;5.60;2.78;;;;;;;;;;5093332;28;20024;-71
2021/12/11 04:50:59;;;;;;;3.65;2.25;;;;;;;;;;5094571;28;20019;-71
2021/12/11 04:53:57;;;;;;;6.30;2.97;;;;;;;;;;5093589;28;20019;-71
2021/12/11 05:09:56;;;;;;;7.03;2.80;;;;;;;;;;5051318;28;20113;-70
2021/12/11 05:12:34;;;;;;;6.65;2.53;;;;;;;;;;5051794;28;20447;-70
2021/12/11 05:15:01;;;;;;;5.10;2.58;;;;;;;;;;5077771;28;20028;-71
2021/12/11 05:17:27;;;;;;;6.30;2.22;;;;;;;;;;5093431;28;20051;-71
2021/12/11 05:19:54;;;;;;;8.07;3.30;;;;;;;;;;5093649;28;20089;-71
2021/12/11 05:22:20;;;;;;;7.00;3.63;;;;;;;;;;5093186;28;20024;-73
2021/12/11 05:24:49;;;;;;;5.03;2.55;;;;;;;;;;5093724;28;20077;-72
2021/12/11 05:27:15;;;;;;;5.07;2.60;;;;;;;;;;5093781;28;20045;-71
2021/12/11 05:29:41;;;;;;;5.80;2.60;;;;;;;;;;5093062;28;20146;-73
2021/12/11 05:32:11;;;;;;;4.50;2.22;;;;;;;;;;5093587;28;20024;-72
2021/12/11 05:34:38;;;;;;;6.72;2.75;;;;;;;;;;5093696;28;20024;-70
2021/12/11 05:37:05;;;;;;;7.65;2.72;;;;;;;;;;5093110;28;20056;-71
2021/12/11 05:39:31;;;;;;;6.43;2.60;;;;;;;;;;5093331;28;20093;-72
2021/12/11 05:41:58;;;;;;;6.03;2.65;;;;;;;;;;5093479;28;20048;-70
2021/12/11 05:44:24;;;;;;;7.40;2.55;;;;;;;;;;5093014;28;20077;-72
2021/12/11 05:46:52;;;;;;;8.43;2.92;;;;;;;;;;5093559;28;20106;-70
2021/12/11 05:49:18;;;;;;;6.60;2.88;;;;;;;;;;5093323;28;20035;-70
2021/12/11 05:51:46;;;;;;;6.28;2.72;;;;;;;;;;5092895;28;20384;-71
2021/12/11 05:54:15;;;;;;;8.98;3.13;;;;;;;;;;5093306;28;20031;-70
2021/12/11 05:56:41;;;;;;;5.70;3.05;;;;;;;;;;5092966;28;20020;-70
2021/12/11 05:59:09;;;;;;;9.30;4.32;;;;;;;;;;5093172;28;20028;-70
2021/12/11 06:01:41;;;;;;;24.75;13.45;;;;;;;;;;5096426;28;20032;-71
2021/12/11 06:04:11;;;;;;;14.82;8.35;;;;;;;;;;5096687;28;20103;-70
2021/12/11 06:06:38;;;;;;;12.70;6.18;;;;;;;;;;5097350;28;20028;-70
2021/12/11 06:09:06;;;;;;;13.25;6.75;;;;;;;;;;5097056;28;20027;-71
2021/12/11 06:11:32;;;;;;;10.68;5.53;;;;;;;;;;5096569;28;20484;-70
2021/12/11 06:13:59;;;;;;;11.50;5.45;;;;;;;;;;5097086;28;20028;-70
2021/12/11 06:16:25;;;;;;;15.30;8.80;;;;;;;;;;5096892;28;20487;-71
2021/12/11 06:18:51;;;;;;;12.38;7.15;;;;;;;;;;5096291;28;20105;-71
2021/12/11 06:21:17;;;;;;;11.50;5.82;;;;;;;;;;5096818;28;20016;-71
2021/12/11 06:23:44;;;;;;;13.48;7.18;;;;;;;;;;5096713;28;20388;-70
2021/12/11 06:26:11;;;;;;;11.00;6.82;;;;;;;;;;5096247;28;20415;-70
2021/12/11 06:28:38;;;;;;;12.90;7.88;;;;;;;;;;5096662;28;20365;-70
2021/12/11 06:31:04;;;;;;;13.73;8.73;;;;;;;;;;5096563;28;20456;-70
2021/12/11 06:33:32;;;;;;;27.63;15.90;;;;;;;;;;5096236;28;20098;-70
2021/12/11 06:36:01;;;;;;;37.20;22.00;;;;;;;;;;5096511;28;20503;-70
2021/12/11 06:38:30;;;;;;;59.03;34.03;;;;;;;;;;5096516;28;20032;-70
2021/12/11 06:40:57;;;;;;;62.95;38.97;;;;;;;;;;5095993;28;20031;-70
2021/12/11 06:43:23;;;;;;;32.35;19.42;;;;;;;;;;5096353;28;20052;-70
2021/12/11 06:45:49;;;;;;;35.92;21.25;;;;;;;;;;5095917;28;20031;-71
2021/12/11 06:48:16;;;;;;;20.25;12.50;;;;;;;;;;5096592;28;20059;-71
2021/12/11 06:50:43;;;;;;;28.13;12.68;;;;;;;;;;5096313;28;20032;-71
2021/12/11 06:53:12;;;;;;;18.63;11.43;;;;;;;;;;5095712;28;20028;-71
2021/12/11 06:55:38;;;;;;;46.17;24.23;;;;;;;;;;5096192;28;20503;-71
2021/12/11 06:58:05;;;;;;;53.60;28.00;;;;;;;;;;5096026;28;20107;-71
2021/12/11 07:00:31;;;;;;;20.65;13.13;;;;;;;;;;5095661;28;20028;-71
2021/12/11 07:02:58;;;;;;;24.85;14.95;;;;;;;;;;5096089;28;20065;-71
2021/12/11 07:05:24;;;;;;;28.48;17.10;;;;;;;;;;5096222;28;20024;-72
2021/12/11 07:07:51;;;;;;;27.08;15.73;;;;;;;;;;5095731;28;20028;-75
2021/12/11 07:10:23;;;;;;;20.90;13.23;;;;;;;;;;5096110;28;20028;-72
2021/12/11 07:12:51;;;;;;;19.65;11.52;;;;;;;;;;5095705;28;20016;-73
2021/12/11 07:15:18;;;;;;;22.25;12.27;;;;;;;;;;5095370;28;20024;-76
2021/12/11 07:17:44;;;;;;;91.85;49.13;;;;;;;;;;5095452;28;20036;-72
2021/12/11 07:20:12;;;;;;;51.10;32.67;;;;;;;;;;5095791;28;20046;-72
2021/12/11 07:22:40;;;;;;;49.58;33.42;;;;;;;;;;5095298;28;20395;-71
2021/12/11 07:25:10;;;;;;;32.40;22.02;;;;;;;;;;5095593;28;20016;-71
2021/12/11 07:27:36;;;;;;;24.55;16.02;;;;;;;;;;5095587;28;20012;-70
2021/12/11 07:30:03;;;;;;;23.15;14.48;;;;;;;;;;5095056;28;20115;-72
2021/12/11 07:32:29;;;;;;;12.35;8.15;;;;;;;;;;5094189;28;20383;-70
2021/12/11 07:34:56;;;;;;;11.27;7.45;;;;;;;;;;5095651;28;20035;-70
2021/12/11 07:37:23;;;;;;;93.00;51.10;;;;;;;;;;5094795;28;20415;-72
2021/12/11 07:39:49;;;;;;;57.85;34.67;;;;;;;;;;5095567;28;20033;-70
2021/12/11 07:42:15;;;;;;;8.70;4.78;;;;;;;;;;5093560;28;20043;-70
2021/12/11 07:44:41;;;;;;;16.23;11.30;;;;;;;;;;5095217;28;20468;-70
2021/12/11 07:47:08;;;;;;;9.07;5.72;;;;;;;;;;5095130;28;20072;-70
2021/12/11 07:49:34;;;;;;;29.30;18.38;;;;;;;;;;5094918;28;20484;-70
2021/12/11 07:52:00;;;;;;;52.45;32.58;;;;;;;;;;5095048;28;20035;-70
2021/12/11 07:54:27;;;;;;;21.88;12.82;;;;;;;;;;5095069;28;20031;-70
2021/12/11 07:56:54;;;;;;;15.38;10.85;;;;;;;;;;5093243;28;20051;-70
2021/12/11 07:59:20;;;;;;;17.70;11.52;;;;;;;;;;5094792;28;20500;-70
2021/12/11 08:01:48;;;;;;;25.90;18.85;;;;;;;;;;5094800;28;20020;-70
2021/12/11 08:04:14;;;;;;;34.80;24.70;;;;;;;;;;5094577;28;20028;-70
2021/12/11 08:06:41;;;;;;;22.42;15.82;;;;;;;;;;5094810;28;20055;-71
2021/12/11 08:09:08;;;;;;;35.63;23.85;;;;;;;;;;5094705;28;20020;-70
2021/12/11 08:11:35;;;;;;;17.10;11.05;;;;;;;;;;5094323;28;20024;-71
2021/12/11 08:14:01;;;;;;;41.22;24.85;;;;;;;;;;5094774;28;20020;-71
2021/12/11 08:16:35;;;;;;;38.55;24.15;;;;;;;;;;5094812;28;20028;-70
2021/12/11 08:19:01;;;;;;;9.18;4.47;;;;;;;;;;5093914;28;20470;-71
2021/12/11 08:21:28;;;;;;;13.55;8.75;;;;;;;;;;5094524;28;20095;-70
2021/12/11 08:23:55;;;;;;;25.13;14.77;;;;;;;;;;5092435;28;20514;-70
2021/12/11 08:26:22;;;;;;;29.85;19.35;;;;;;;;;;5094070;28;20035;-70
2021/12/11 08:28:50;;;;;;;25.48;16.27;;;;;;;;;;5094562;28;20099;-70
2021/12/11 08:31:17;;;;;;;23.45;14.27;;;;;;;;;;5094285;28;20376;-70
2021/12/11 08:33:43;;;;;;;9.07;5.20;;;;;;;;;;5093905;28;20056;-70
2021/12/11 08:36:10;;;;;;;12.30;8.10;;;;;;;;;;5094271;28;20020;-70
2021/12/11 08:38:36;;;;;;;7.55;3.85;;;;;;;;;;5093732;28;20162;-70
2021/12/11 08:41:04;;;;;;;22.92;13.80;;;;;;;;;;5094268;28;20016;-70
2021/12/11 08:43:31;;;;;;;26.55;12.20;;;;;;;;;;5094021;28;20024;-71
2021/12/11 08:46:14;;;;;;;14.10;6.90;;;;;;;;;;5093612;28;20362;-70
2021/12/11 08:48:40;;;;;;;;;;;;;;;;;;5095031;28;20031;-71
2021/12/11 08:51:10;;;;;;;18.90;11.02;;;;;;;;;;5092621;28;19908;-70
2021/12/11 08:53:37;;;;;;;17.08;10.75;;;;;;;;;;5093543;28;20024;-70
2021/12/11 08:56:04;;;;;;;13.98;8.00;;;;;;;;;;5093906;28;20020;-70
2021/12/11 08:58:30;;;;;;;11.88;6.75;;;;;;;;;;5093856;28;20064;-71
2021/12/11 09:01:09;;;;;;;16.65;9.93;;;;;;;;;;5093547;28;20372;-71
2021/12/11 09:03:41;;;;;;;8.93;5.03;;;;;;;;;;5092530;28;20028;-71
2021/12/11 09:06:12;;;;;;;21.83;13.13;;;;;;;;;;5093897;28;20464;-70
2021/12/11 09:08:46;;;;;;;9.25;4.90;;;;;;;;;;5093350;28;20020;-71
2021/12/11 09:11:32;;;;;;;8.43;4.47;;;;;;;;;;5093733;28;20538;-71
2021/12/11 09:13:58;;;;;;;18.73;12.57;;;;;;;;;;5093289;28;20081;-70
2021/12/11 09:16:33;;;;;;;23.05;14.10;;;;;;;;;;5093580;28;20020;-71
2021/12/11 09:19:02;;;;;;;14.38;8.68;;;;;;;;;;5093302;28;20496;-71
2021/12/11 09:21:30;;;;;;;24.55;20.83;;;;;;;;;;5093217;28;20024;-70
2021/12/11 09:24:18;;;;;;;12.30;7.90;;;;;;;;;;5093553;28;20361;-71
2021/12/11 09:26:50;;;;;;;18.02;10.75;;;;;;;;;;5093627;28;20025;-71
2021/12/11 09:29:27;;;;;;;17.92;10.45;;;;;;;;;;5093111;28;20020;-71
2021/12/11 09:32:01;;;;;;;22.38;11.52;;;;;;;;;;5093652;28;20096;-70
2021/12/11 09:34:31;;;;;;;15.73;11.13;;;;;;;;;;5095169;28;20025;-70
2021/12/11 09:36:59;;;;;;;21.02;13.10;;;;;;;;;;5097312;28;20085;-70
2021/12/11 09:39:47;;;;;;;24.30;15.27;;;;;;;;;;5097537;28;20032;-71
2021/12/11 09:42:14;;;;;;;20.45;13.00;;;;;;;;;;5097252;28;20050;-71
2021/12/11 09:44:43;;;;;;;19.70;11.95;;;;;;;;;;5097493;28;20054;-71
2021/12/11 09:47:19;;;;;;;22.73;14.98;;;;;;;;;;5097439;28;20073;-71
2021/12/11 09:49:54;;;;;;;25.90;18.40;;;;;;;;;;5097014;28;20020;-71
2021/12/11 09:52:25;;;;;;;21.33;14.88;;;;;;;;;;5097518;28;20016;-71
2021/12/11 09:55:00;;;;;;;22.17;15.23;;;;;;;;;;5097641;28;20047;-71
2021/12/11 09:57:28;;;;;;;26.27;18.58;;;;;;;;;;5096812;28;20028;-71
2021/12/11 09:59:56;;;;;;;31.48;20.80;;;;;;;;;;5097172;28;20032;-71
2021/12/11 10:02:24;;;;;;;32.38;23.95;;;;;;;;;;5097281;28;20031;-71
2021/12/11 10:04:59;;;;;;;31.92;19.88;;;;;;;;;;5096705;28;20384;-71
2021/12/11 10:07:39;;;;;;;27.52;18.85;;;;;;;;;;5097609;28;20020;-71
2021/12/11 10:10:05;;;;;;;26.60;20.25;;;;;;;;;;5096656;28;20023;-71
2021/12/11 10:12:34;;;;;;;26.20;16.08;;;;;;;;;;5096985;28;20024;-71
2021/12/11 10:15:08;;;;;;;28.90;18.20;;;;;;;;;;5095645;28;20028;-71
2021/12/11 10:17:39;;;;;;;26.67;16.48;;;;;;;;;;5096302;28;20044;-71
2021/12/11 10:20:08;;;;;;;20.73;11.65;;;;;;;;;;5097080;28;20377;-71
2021/12/11 10:22:36;;;;;;;18.13;10.50;;;;;;;;;;5096763;28;20020;-71
2021/12/11 10:25:04;;;;;;;19.83;12.00;;;;;;;;;;5096602;28;20024;-71
2021/12/11 10:27:31;;;;;;;22.98;14.10;;;;;;;;;;5096585;28;20077;-70
2021/12/11 10:29:58;;;;;;;36.30;17.60;;;;;;;;;;5096737;28;20545;-72
2021/12/11 10:32:26;;;;;;;27.33;13.15;;;;;;;;;;5096165;28;20024;-71
2021/12/11 10:34:54;;;;;;;26.08;15.20;;;;;;;;;;5095270;28;20027;-71
2021/12/11 10:37:22;;;;;;;29.77;17.80;;;;;;;;;;5096422;28;20028;-71
2021/12/11 10:39:54;;;;;;;39.35;24.75;;;;;;;;;;5095872;28;20081;-71
2021/12/11 10:42:21;;;;;;;62.75;41.95;;;;;;;;;;5096345;28;20045;-71
2021/12/11 10:44:49;;;;;;;61.53;42.75;;;;;;;;;;5096425;28;20076;-74
2021/12/11 10:47:20;;;;;;;50.95;35.78;;;;;;;;;;5094178;28;20383;-74
2021/12/11 10:49:48;;;;;;;36.20;26.08;;;;;;;;;;5096290;28;20054;-71
2021/12/11 10:52:32;;;;;;;28.73;18.05;;;;;;;;;;5095856;28;20099;-71
2021/12/11 10:55:03;;;;;;;27.00;15.98;;;;;;;;;;5096137;28;20487;-70
2021/12/11 10:57:29;;;;;;;63.38;44.25;;;;;;;;;;5094790;28;20028;-70
2021/12/11 10:59:57;;;;;;;61.13;39.90;;;;;;;;;;5095743;28;20107;-72
2021/12/11 11:02:26;;;;;;;54.53;36.75;;;;;;;;;;5095957;28;20076;-71
2021/12/11 11:04:54;;;;;;;52.03;33.63;;;;;;;;;;5096229;28;20035;-72
2021/12/11 11:07:21;;;;;;;48.88;32.60;;;;;;;;;;5095525;28;20055;-71
2021/12/11 11:09:48;;;;;;;48.53;33.38;;;;;;;;;;5096065;28;20020;-71
2021/12/11 11:12:17;;;;;;;49.05;31.60;;;;;;;;;;5095881;28;20380;-71
2021/12/11 11:14:43;;;;;;;28.70;20.65;;;;;;;;;;5095489;28;20423;-71
2021/12/11 11:17:12;;;;;;;28.13;21.02;;;;;;;;;;5095630;28;20123;-71
2021/12/11 11:19:40;;;;;;;32.20;21.67;;;;;;;;;;5096208;28;20461;-71
2021/12/11 11:22:08;;;;;;;26.75;16.70;;;;;;;;;;5095186;28;20416;-71
2021/12/11 11:24:37;;;;;;;24.92;14.75;;;;;;;;;;5095572;28;20024;-71
2021/12/11 11:27:04;;;;;;;28.48;19.20;;;;;;;;;;5095543;28;20103;-71
2021/12/11 11:29:30;;;;;;;41.80;20.67;;;;;;;;;;5095068;28;20468;-71
2021/12/11 11:32:01;;;;;;;27.38;15.98;;;;;;;;;;5095379;28;20031;-71
2021/12/11 11:34:28;;;;;;;23.60;15.35;;;;;;;;;;5095211;28;20082;-71
2021/12/11 11:36:56;;;;;;;21.55;12.35;;;;;;;;;;5095659;28;20020;-71
2021/12/11 11:39:23;;;;;;;18.63;10.32;;;;;;;;;;5095223;28;20036;-72
2021/12/11 11:41:55;;;;;;;26.95;15.55;;;;;;;;;;5094794;28;20107;-71
2021/12/11 11:44:24;;;;;;;30.80;17.60;;;;;;;;;;5095180;28;20028;-71
2021/12/11 11:46:50;;;;;;;41.33;26.58;;;;;;;;;;5095197;28;20028;-71
2021/12/11 11:49:18;;;;;;;30.88;19.02;;;;;;;;;;5094762;28;20053;-72
2021/12/11 11:52:07;;;;;;;24.77;14.15;;;;;;;;;;5095102;28;20016;-71
2021/12/11 11:54:34;;;;;;;30.73;17.88;;;;;;;;;;5095138;28;20054;-70
2021/12/11 11:57:07;;;;;;;37.00;21.23;;;;;;;;;;5092998;28;20047;-71
2021/12/11 11:59:34;;;;;;;34.97;21.52;;;;;;;;;;5094455;28;20504;-71
2021/12/11 12:02:04;;;;;;;25.90;16.17;;;;;;;;;;5094908;28;20065;-72
2021/12/11 12:04:31;;;;;;;21.48;14.30;;;;;;;;;;5094373;28;20104;-71
2021/12/11 12:07:00;;;;;;;22.40;13.70;;;;;;;;;;5094779;28;20016;-70
2021/12/11 12:09:28;;;;;;;25.05;14.55;;;;;;;;;;5094469;28;20051;-70
2021/12/11 12:11:54;;;;;;;20.08;12.55;;;;;;;;;;5093327;28;20499;-71
2021/12/11 12:14:23;;;;;;;20.65;12.10;;;;;;;;;;5094742;28;20024;-72
2021/12/11 12:16:50;;;;;;;20.67;12.00;;;;;;;;;;5094000;28;20024;-70
2021/12/11 12:19:17;;;;;;;20.30;11.25;;;;;;;;;;5094744;28;20057;-70
2021/12/11 12:21:45;;;;;;;14.88;9.38;;;;;;;;;;5094419;28;20077;-70
2021/12/11 12:24:11;;;;;;;16.98;10.57;;;;;;;;;;5093981;28;20435;-70
2021/12/11 12:26:38;;;;;;;19.35;12.57;;;;;;;;;;5094375;28;20372;-70
2021/12/11 12:29:06;;;;;;;19.92;11.88;;;;;;;;;;5094337;28;20096;-71
2021/12/11 12:31:37;;;;;;;24.23;15.48;;;;;;;;;;5093919;28;20495;-70
2021/12/11 12:34:04;;;;;;;24.17;14.85;;;;;;;;;;5094155;28;20123;-71
2021/12/11 12:36:30;;;;;;;18.80;12.27;;;;;;;;;;5094332;28;20027;-71
2021/12/11 12:38:57;;;;;;;24.17;11.63;;;;;;;;;;5093894;28;20427;-71
2021/12/11 12:41:28;;;;;;;20.38;12.07;;;;;;;;;;5094178;28;20425;-71
2021/12/11 12:44:17;;;;;;;21.45;13.25;;;;;;;;;;5094024;28;20103;-71
2021/12/11 12:46:55;;;;;;;15.80;9.38;;;;;;;;;;5093770;28;20492;-72
2021/12/11 12:49:22;;;;;;;23.25;13.05;;;;;;;;;;5094298;28;20024;-72
2021/12/11 12:51:49;;;;;;;21.50;13.60;;;;;;;;;;5093572;28;20049;-70
2021/12/11 12:54:16;;;;;;;18.92;10.15;;;;;;;;;;5093949;28;20035;-71
2021/12/11 12:56:45;;;;;;;14.98;9.05;;;;;;;;;;5094044;28;20020;-71
2021/12/11 12:59:15;;;;;;;23.13;13.02;;;;;;;;;;5093801;28;20032;-71
2021/12/11 13:01:46;;;;;;;21.40;12.90;;;;;;;;;;5093852;28;20024;-71
2021/12/11 13:04:14;;;;;;;22.30;14.15;;;;;;;;;;5093838;28;20480;-71
2021/12/11 13:06:43;;;;;;;49.33;24.10;;;;;;;;;;5093351;28;20035;-71
2021/12/11 13:09:15;;;;;;;27.85;17.35;;;;;;;;;;5092056;28;20445;-71
2021/12/11 13:12:02;;;;;;;25.02;14.98;;;;;;;;;;5093598;28;20016;-71
2021/12/11 13:14:30;;;;;;;21.52;14.88;;;;;;;;;;5093243;28;20095;-72
2021/12/11 13:16:59;;;;;;;21.70;13.25;;;;;;;;;;5093362;28;20027;-71
2021/12/11 13:19:29;;;;;;;23.92;13.15;;;;;;;;;;5093709;28;20048;-71
2021/12/11 13:21:58;;;;;;;20.83;12.07;;;;;;;;;;5093154;28;20418;-71
2021/12/11 13:24:24;;;;;;;38.55;20.70;;;;;;;;;;5093446;28;20468;-71
2021/12/11 13:26:53;;;;;;;28.52;16.55;;;;;;;;;;5093056;28;20024;-71
2021/12/11 13:29:21;;;;;;;21.75;12.98;;;;;;;;;;5093534;28;20028;-70
2021/12/11 13:31:54;;;;;;;33.95;16.63;;;;;;;;;;5093499;28;20055;-70
2021/12/11 13:34:21;;;;;;;30.75;15.68;;;;;;;;;;5093302;28;20089;-72
2021/12/11 13:36:47;;;;;;;20.67;13.18;;;;;;;;;;5093422;28;20050;-71
2021/12/11 13:39:15;;;;;;;22.98;13.75;;;;;;;;;;5093250;28;20032;-71
2021/12/11 13:41:47;;;;;;;27.27;16.90;;;;;;;;;;5093118;28;20391;-71
2021/12/11 13:44:15;;;;;;;25.98;16.20;;;;;;;;;;5093397;28;20020;-70
2021/12/11 13:46:41;;;;;;;30.20;17.33;;;;;;;;;;5093440;28;20072;-70
2021/12/11 13:49:07;;;;;;;26.05;16.45;;;;;;;;;;5092946;28;20107;-71
2021/12/11 13:51:37;;;;;;;36.00;21.48;;;;;;;;;;5093852;28;20043;-71
2021/12/11 13:54:03;;;;;;;25.50;13.93;;;;;;;;;;5093211;28;20035;-71
2021/12/11 13:56:32;;;;;;;30.50;17.45;;;;;;;;;;5092817;28;20097;-71
2021/12/11 13:58:58;;;;;;;28.40;16.98;;;;;;;;;;5093663;28;20040;-71
2021/12/11 14:01:28;;;;;;;29.95;17.90;;;;;;;;;;5093157;28;20025;-72
2021/12/11 14:03:55;;;;;;;22.83;13.70;;;;;;;;;;5092835;28;20488;-71
2021/12/11 14:06:24;;;;;;;25.40;15.32;;;;;;;;;;5093300;28;20081;-71
2021/12/11 14:08:54;;;;;;;25.70;16.55;;;;;;;;;;5093121;28;20090;-71
2021/12/11 14:11:21;;;;;;;45.53;26.65;;;;;;;;;;5092780;28;20013;-71
2021/12/11 14:13:47;;;;;;;45.72;28.45;;;;;;;;;;5093113;28;20492;-71
2021/12/11 14:16:14;;;;;;;56.83;35.45;;;;;;;;;;5092612;28;20388;-71
2021/12/11 14:18:43;;;;;;;45.53;26.63;;;;;;;;;;5092814;28;20052;-71
2021/12/11 14:21:10;;;;;;;40.90;25.15;;;;;;;;;;5093899;28;20031;-71
2021/12/11 14:23:38;;;;;;;39.67;22.33;;;;;;;;;;5096335;28;20028;-72
2021/12/11 14:26:06;;;;;;;51.78;29.27;;;;;;;;;;5096984;28;20020;-72
2021/12/11 14:28:32;;;;;;;49.40;29.83;;;;;;;;;;5096728;28;20028;-70
2021/12/11 14:31:09;;;;;;;40.85;23.70;;;;;;;;;;5095010;28;20028;-70
2021/12/11 14:33:36;;;;;;;43.17;23.67;;;;;;;;;;5096666;28;20051;-70
2021/12/11 14:36:04;;;;;;;38.80;22.88;;;;;;;;;;5096636;28;20024;-70
2021/12/11 14:38:31;;;;;;;31.83;20.10;;;;;;;;;;5096066;28;20035;-70
2021/12/11 14:40:57;;;;;;;33.92;20.40;;;;;;;;;;5096518;28;20031;-71
2021/12/11 14:43:25;;;;;;;28.40;17.73;;;;;;;;;;5096460;28;20024;-71
2021/12/11 14:45:53;;;;;;;27.23;17.33;;;;;;;;;;5096270;28;20391;-71
2021/12/11 14:48:20;;;;;;;35.00;21.52;;;;;;;;;;5096482;28;20036;-70
2021/12/11 14:50:48;;;;;;;31.67;19.50;;;;;;;;;;5096267;28;20058;-70